createdAt,value
2024-02-14T00:01:02.446Z,101350.31
2024-02-14T00:03:41.328Z,101349.47
2024-02-14T00:06:10.455Z,101351.84
2024-02-14T00:08:39.499Z,101363.06
2024-02-14T00:11:08.581Z,101362.44
2024-02-14T00:13:36.972Z,101365.50
2024-02-14T00:16:07.952Z,101375.44
2024-02-14T00:18:36.465Z,101363.69
2024-02-14T00:21:05.403Z,101362.84
2024-02-14T00:23:33.663Z,101359.59
2024-02-14T00:26:02.442Z,101358.84
2024-02-14T00:28:30.870Z,101354.13
2024-02-14T00:31:00.043Z,101363.50
2024-02-14T00:33:28.397Z,101353.06
2024-02-14T00:35:57.220Z,101350.47
2024-02-14T00:38:25.473Z,101355.59
2024-02-14T00:40:54.245Z,101361.69
2024-02-14T00:43:22.306Z,101354.91
2024-02-14T00:45:50.992Z,101352.72
2024-02-14T00:48:19.490Z,101358.25
2024-02-14T00:50:48.216Z,101362.84
2024-02-14T00:53:16.443Z,101370.19
2024-02-14T00:55:45.135Z,101369.13
2024-02-14T00:58:13.709Z,101377.84
2024-02-14T01:00:42.512Z,101377.59
2024-02-14T01:03:14.279Z,101380.31
2024-02-14T01:05:43.058Z,101383.28
2024-02-14T01:08:11.412Z,101390.63
2024-02-14T01:10:40.407Z,101385.09
2024-02-14T01:13:08.690Z,101376.75
2024-02-14T01:15:37.491Z,101376.53
2024-02-14T01:18:05.976Z,101375.19
2024-02-14T01:20:34.520Z,101381.59
2024-02-14T01:23:02.779Z,101383.44
2024-02-14T01:25:31.264Z,101379.75
2024-02-14T01:28:01.036Z,101387.16
2024-02-14T01:30:29.576Z,101387.28
2024-02-14T01:32:57.842Z,101383.81
2024-02-14T01:35:28.401Z,101386.19
2024-02-14T01:37:56.843Z,101386.00
2024-02-14T01:40:25.653Z,101376.66
2024-02-14T01:42:54.076Z,101374.75
2024-02-14T01:45:23.209Z,101377.00
2024-02-14T01:47:52.484Z,101378.63
2024-02-14T01:50:30.275Z,101378.91
2024-02-14T01:53:01.243Z,101374.97
2024-02-14T01:55:30.370Z,101376.97
2024-02-14T01:57:59.019Z,101378.00
2024-02-14T02:00:28.745Z,101380.59
2024-02-14T02:02:58.751Z,101376.47
2024-02-14T02:05:27.943Z,101377.28
2024-02-14T02:07:56.624Z,101369.88
2024-02-14T02:10:27.249Z,101376.47
2024-02-14T02:13:02.245Z,101378.41
2024-02-14T02:15:32.519Z,101377.56
2024-02-14T02:18:01.260Z,101374.31
2024-02-14T02:20:30.192Z,101375.19
2024-02-14T02:22:58.794Z,101374.72
2024-02-14T02:25:28.235Z,101380.44
2024-02-14T02:27:58.165Z,101373.03
2024-02-14T02:30:26.815Z,101368.81
2024-02-14T02:32:55.265Z,101366.88
2024-02-14T02:35:25.874Z,101377.69
2024-02-14T02:37:54.725Z,101366.63
2024-02-14T02:40:24.372Z,101377.31
2024-02-14T02:42:52.804Z,101381.16
2024-02-14T02:45:21.642Z,101378.59
2024-02-14T02:47:53.263Z,101380.44
2024-02-14T02:50:23.167Z,101382.34
2024-02-14T02:52:51.508Z,101386.28
2024-02-14T02:55:20.287Z,101381.75
2024-02-14T02:57:48.654Z,101389.47
2024-02-14T03:00:17.654Z,101389.19
2024-02-14T03:02:46.635Z,101388.06
2024-02-14T03:05:25.131Z,101390.47
2024-02-14T03:07:54.391Z,101397.22
2024-02-14T03:10:23.550Z,101404.66
2024-02-14T03:12:51.797Z,101407.81
2024-02-14T03:15:21.037Z,101400.91
2024-02-14T03:17:49.450Z,101398.22
2024-02-14T03:20:19.192Z,101405.38
2024-02-14T03:22:48.902Z,101404.53
2024-02-14T03:25:19.652Z,101401.34
2024-02-14T03:27:52.756Z,101409.13
2024-02-14T03:30:23.064Z,101406.00
2024-02-14T03:32:52.114Z,101408.63
2024-02-14T03:35:22.254Z,101413.41
2024-02-14T03:37:54.074Z,101431.44
2024-02-14T03:40:23.474Z,101420.81
2024-02-14T03:42:53.242Z,101421.28
2024-02-14T03:45:22.170Z,101436.19
2024-02-14T03:47:50.784Z,101435.94
2024-02-14T03:50:19.430Z,101436.25
2024-02-14T03:52:47.842Z,101450.03
2024-02-14T03:55:18.672Z,101458.00
2024-02-14T03:57:48.466Z,101445.78
2024-02-14T04:00:17.750Z,101454.03
2024-02-14T04:02:46.086Z,101454.28
2024-02-14T04:05:14.728Z,101456.41
2024-02-14T04:07:45.872Z,101453.25
2024-02-14T04:10:15.168Z,101451.63
2024-02-14T04:12:43.361Z,101450.97
2024-02-14T04:15:12.262Z,101443.56
2024-02-14T04:17:43.712Z,101455.50
2024-02-14T04:20:12.494Z,101457.66
2024-02-14T04:22:40.794Z,101455.84
2024-02-14T04:25:09.753Z,101461.72
2024-02-14T04:27:38.039Z,101453.22
2024-02-14T04:30:07.490Z,101463.06
2024-02-14T04:32:36.271Z,101466.25
2024-02-14T04:35:05.450Z,101465.16
2024-02-14T04:37:34.346Z,101466.50
2024-02-14T04:40:05.798Z,101471.97
2024-02-14T04:42:34.626Z,101473.59
2024-02-14T04:45:03.445Z,101473.91
2024-02-14T04:47:32.112Z,101475.25
2024-02-14T04:50:02.303Z,101481.13
2024-02-14T04:52:31.130Z,101472.66
2024-02-14T04:54:59.995Z,101466.75
2024-02-14T04:57:28.346Z,101466.44
2024-02-14T04:59:57.150Z,101465.41
2024-02-14T05:02:25.913Z,101472.00
2024-02-14T05:04:54.603Z,101474.72
2024-02-14T05:07:22.926Z,101468.38
2024-02-14T05:09:53.640Z,101467.31
2024-02-14T05:12:21.924Z,101470.25
2024-02-14T05:14:50.660Z,101469.19
2024-02-14T05:17:19.138Z,101470.78
2024-02-14T05:19:47.828Z,101466.00
2024-02-14T05:22:16.074Z,101472.38
2024-02-14T05:24:44.560Z,101476.34
2024-02-14T05:27:12.786Z,101473.69
2024-02-14T05:29:41.636Z,101484.88
2024-02-14T05:32:11.187Z,101487.22
2024-02-14T05:34:39.902Z,101474.75
2024-02-14T05:37:09.385Z,101479.00
2024-02-14T05:39:37.898Z,101473.44
2024-02-14T05:42:07.033Z,101477.97
2024-02-14T05:44:35.759Z,101483.56
2024-02-14T05:47:04.705Z,101493.09
2024-02-14T05:49:33.399Z,101491.47
2024-02-14T05:52:01.748Z,101502.91
2024-02-14T05:54:30.402Z,101509.03
2024-02-14T05:56:59.156Z,101505.31
2024-02-14T05:59:27.765Z,101508.78
2024-02-14T06:01:56.050Z,101502.91
2024-02-14T06:04:24.515Z,101507.47
2024-02-14T06:06:53.321Z,101512.50
2024-02-14T06:09:22.215Z,101515.44
2024-02-14T06:11:50.521Z,101521.78
2024-02-14T06:14:20.097Z,101521.78
2024-02-14T06:16:48.304Z,101517.00
2024-02-14T06:19:16.986Z,101519.66
2024-02-14T06:21:45.794Z,101521.00
2024-02-14T06:24:14.995Z,101516.72
2024-02-14T06:26:43.334Z,101515.66
2024-02-14T06:29:11.899Z,101517.03
2024-02-14T06:31:40.206Z,101527.88
2024-02-14T06:34:09.874Z,101527.63
2024-02-14T06:36:38.464Z,101532.94
2024-02-14T06:39:09.504Z,101529.47
2024-02-14T06:41:38.110Z,101531.88
2024-02-14T06:44:06.713Z,101529.75
2024-02-14T06:46:36.978Z,101539.56
2024-02-14T06:49:05.797Z,101541.72
2024-02-14T06:51:34.661Z,101545.16
2024-02-14T06:54:03.997Z,101556.03
2024-02-14T06:56:32.541Z,101558.97
2024-02-14T06:59:01.553Z,101550.22
2024-02-14T07:01:30.827Z,101559.25
2024-02-14T07:04:00.486Z,101562.44
2024-02-14T07:06:29.371Z,101565.09
2024-02-14T07:08:58.573Z,101573.06
2024-02-14T07:11:26.798Z,101574.09
2024-02-14T07:13:55.415Z,101578.88
2024-02-14T07:16:23.522Z,101577.03
2024-02-14T07:18:52.579Z,101581.47
2024-02-14T07:21:20.896Z,101584.94
2024-02-14T07:23:49.534Z,101583.81
2024-02-14T07:26:17.676Z,101578.00
2024-02-14T07:28:46.241Z,101584.66
2024-02-14T07:31:14.456Z,101598.16
2024-02-14T07:33:44.921Z,101607.53
2024-02-14T07:36:13.193Z,101603.75
2024-02-14T07:38:44.223Z,101606.84
2024-02-14T07:41:12.438Z,101612.16
2024-02-14T07:43:40.926Z,101611.72
2024-02-14T07:46:09.421Z,101610.28
2024-02-14T07:48:38.217Z,101614.94
2024-02-14T07:51:09.597Z,101618.31
2024-02-14T07:53:38.533Z,101615.44
2024-02-14T07:56:06.978Z,101613.38
2024-02-14T07:58:35.470Z,101615.75
2024-02-14T08:01:05.708Z,101619.56
2024-02-14T08:03:34.606Z,101622.25
2024-02-14T08:06:02.849Z,101627.09
2024-02-14T08:08:31.606Z,101633.28
2024-02-14T08:10:59.742Z,101627.69
2024-02-14T08:13:28.185Z,101621.72
2024-02-14T08:15:56.393Z,101621.72
2024-02-14T08:18:25.150Z,101619.22
2024-02-14T08:20:53.284Z,101622.75
2024-02-14T08:23:21.737Z,101626.00
2024-02-14T08:25:50.301Z,101629.25
2024-02-14T08:28:22.483Z,101637.63
2024-02-14T08:30:50.677Z,101627.56
2024-02-14T08:33:19.264Z,101636.22
2024-02-14T08:35:48.703Z,101640.31
2024-02-14T08:38:17.313Z,101640.59
2024-02-14T08:40:45.512Z,101641.44
2024-02-14T08:43:14.009Z,101638.50
2024-02-14T08:45:42.231Z,101635.72
2024-02-14T08:48:10.721Z,101643.16
2024-02-14T08:50:38.948Z,101646.34
2024-02-14T08:53:08.261Z,101638.09
2024-02-14T08:55:38.002Z,101646.94
2024-02-14T08:58:06.756Z,101641.78
2024-02-14T09:00:36.746Z,101637.00
2024-02-14T09:03:05.978Z,101635.19
2024-02-14T09:05:35.071Z,101647.94
2024-02-14T09:08:04.401Z,101638.41
2024-02-14T09:10:32.565Z,101633.03
2024-02-14T09:13:02.165Z,101623.50
2024-02-14T09:15:31.791Z,101627.09
2024-02-14T09:18:01.644Z,101621.38
2024-02-14T09:20:30.297Z,101618.06
2024-02-14T09:22:59.857Z,101615.50
2024-02-14T09:25:28.306Z,101614.63
2024-02-14T09:27:56.884Z,101613.75
2024-02-14T09:30:32.068Z,101624.72
2024-02-14T09:33:07.294Z,101616.59
2024-02-14T09:35:37.049Z,101624.97
2024-02-14T09:38:05.707Z,101620.16
2024-02-14T09:40:34.185Z,101618.34
2024-02-14T09:43:06.970Z,101619.88
2024-02-14T09:45:35.362Z,101629.69
2024-02-14T09:48:04.477Z,101632.16
2024-02-14T09:50:34.024Z,101633.72
2024-02-14T09:53:03.922Z,101635.16
2024-02-14T09:55:32.113Z,101625.44
2024-02-14T09:58:05.404Z,101636.34
2024-02-14T10:00:34.575Z,101631.00
2024-02-14T10:03:03.184Z,101633.16
2024-02-14T10:05:31.431Z,101624.94
2024-02-14T10:08:00.076Z,101635.38
2024-02-14T10:10:29.253Z,101636.59
2024-02-14T10:12:57.925Z,101643.75
2024-02-14T10:15:26.392Z,101636.97
2024-02-14T10:17:55.462Z,101627.13
2024-02-14T10:20:24.041Z,101628.69
2024-02-14T10:22:52.603Z,101626.72
2024-02-14T10:25:21.073Z,101622.66
2024-02-14T10:27:49.668Z,101632.78
2024-02-14T10:30:18.310Z,101635.06
2024-02-14T10:32:49.982Z,101621.44
2024-02-14T10:35:21.684Z,101625.75
2024-02-14T10:37:50.525Z,101625.22
2024-02-14T10:40:19.965Z,101616.03
2024-02-14T10:42:48.678Z,101621.25
2024-02-14T10:45:17.363Z,101613.47
2024-02-14T10:47:50.423Z,101620.91
2024-02-14T10:50:22.593Z,101613.19
2024-02-14T10:52:54.481Z,101615.94
2024-02-14T10:55:28.402Z,101616.78
2024-02-14T10:57:58.709Z,101615.72
2024-02-14T11:00:28.138Z,101602.84
2024-02-14T11:02:57.361Z,101606.44
2024-02-14T11:05:27.116Z,101603.19
2024-02-14T11:07:55.726Z,101612.66
2024-02-14T11:10:24.486Z,101603.03
2024-02-14T11:12:55.910Z,101600.03
2024-02-14T11:15:32.515Z,101603.94
2024-02-14T11:18:11.205Z,101606.13
2024-02-14T11:20:42.175Z,101608.72
2024-02-14T11:23:12.914Z,101602.00
2024-02-14T11:25:41.173Z,101604.41
2024-02-14T11:28:25.031Z,101600.78
2024-02-14T11:30:53.452Z,101614.03
2024-02-14T11:33:26.457Z,101611.72
2024-02-14T11:35:56.794Z,101613.03
2024-02-14T11:38:27.653Z,101594.47
2024-02-14T11:40:58.558Z,101597.09
2024-02-14T11:43:28.401Z,101587.78
2024-02-14T11:45:56.699Z,101586.19
2024-02-14T11:48:25.921Z,101583.63
2024-02-14T11:50:55.568Z,101578.53
2024-02-14T11:53:24.694Z,101586.53
2024-02-14T11:55:53.026Z,101586.59
2024-02-14T11:58:21.714Z,101591.13
2024-02-14T12:00:52.866Z,101591.34
2024-02-14T12:03:24.114Z,101579.34
2024-02-14T12:05:55.223Z,101575.50
2024-02-14T12:08:24.723Z,101574.34
2024-02-14T12:10:53.126Z,101575.50
2024-02-14T12:13:23.208Z,101578.72
2024-02-14T12:15:53.317Z,101581.06
2024-02-14T12:18:23.163Z,101577.94
2024-02-14T12:20:56.037Z,101570.97
2024-02-14T12:23:28.024Z,101562.06
2024-02-14T12:26:04.477Z,101566.25
2024-02-14T12:28:33.648Z,101571.16
2024-02-14T12:31:01.843Z,101566.78
2024-02-14T12:33:31.338Z,101564.91
2024-02-14T12:35:59.948Z,101551.25
2024-02-14T12:38:28.611Z,101555.47
2024-02-14T12:40:57.045Z,101551.94
2024-02-14T12:43:25.695Z,101554.78
2024-02-14T12:45:53.982Z,101542.94
2024-02-14T12:48:29.718Z,101551.06
2024-02-14T12:50:59.441Z,101543.06
2024-02-14T12:53:28.376Z,101529.59
2024-02-14T12:55:56.758Z,101538.97
2024-02-14T12:58:25.796Z,101529.09
2024-02-14T13:00:54.937Z,101526.03
2024-02-14T13:03:24.200Z,101523.13
2024-02-14T13:05:55.573Z,101534.28
2024-02-14T14:43:41.404Z,101486.00
2024-02-14T14:46:12.940Z,101488.63
2024-02-14T14:48:41.222Z,101495.78
2024-02-14T14:51:10.238Z,101484.72
2024-02-14T14:53:38.778Z,101477.66
2024-02-14T14:56:08.058Z,101478.31
2024-02-14T14:58:37.686Z,101479.66
2024-02-14T15:01:06.682Z,101490.50
2024-02-14T15:03:35.044Z,101482.66
2024-02-14T15:06:04.068Z,101481.03
2024-02-14T15:08:33.896Z,101483.41
2024-02-14T15:11:02.565Z,101480.72
2024-02-14T15:13:30.733Z,101483.25
2024-02-14T15:16:02.024Z,101482.00
2024-02-14T15:18:30.670Z,101479.50
2024-02-14T15:20:59.415Z,101487.47
2024-02-14T15:23:27.913Z,101494.28
2024-02-14T15:26:18.587Z,101485.38
2024-02-14T15:28:46.982Z,101481.53
2024-02-14T15:31:34.080Z,101488.22
2024-02-14T15:34:05.368Z,101481.31
2024-02-14T15:36:34.403Z,101483.31
2024-02-14T15:39:02.892Z,101490.81
2024-02-14T15:41:31.669Z,101489.00
2024-02-14T15:43:59.857Z,101494.84
2024-02-14T15:46:28.477Z,101504.34
2024-02-14T15:48:57.276Z,101525.69
2024-02-14T15:51:28.474Z,101513.13
2024-02-14T15:53:57.042Z,101518.34
2024-02-14T15:56:28.354Z,101521.47
2024-02-14T15:58:57.912Z,101528.69
2024-02-14T16:01:26.626Z,101529.72
2024-02-14T16:03:55.062Z,101523.19
2024-02-14T16:06:24.759Z,101521.91
2024-02-14T16:08:55.759Z,101520.69
2024-02-14T16:11:24.721Z,101521.25
2024-02-14T16:13:52.971Z,101520.50
2024-02-14T16:16:21.480Z,101518.00
2024-02-14T16:18:49.849Z,101528.00
2024-02-14T16:21:18.950Z,101525.94
2024-02-14T16:23:47.338Z,101533.72
2024-02-14T16:26:16.562Z,101531.47
2024-02-14T16:28:45.015Z,101539.13
2024-02-14T16:31:13.669Z,101532.59
2024-02-14T16:33:44.103Z,101533.38
2024-02-14T16:36:13.252Z,101532.44
2024-02-14T16:38:41.612Z,101533.38
2024-02-14T16:41:10.177Z,101541.97
2024-02-14T16:43:39.199Z,101538.50
2024-02-14T16:46:08.428Z,101550.34
2024-02-14T16:48:37.001Z,101551.03
2024-02-14T16:51:05.833Z,101550.66
2024-02-14T16:53:34.130Z,101549.28
2024-02-14T16:56:03.867Z,101556.78
2024-02-14T16:58:32.151Z,101550.03
2024-02-14T17:01:00.764Z,101546.69
2024-02-14T17:03:29.337Z,101551.66
2024-02-14T17:05:58.485Z,101551.00
2024-02-14T17:08:27.739Z,101551.50
2024-02-14T17:10:56.317Z,101557.19
2024-02-14T17:13:24.609Z,101552.59
2024-02-14T17:15:53.174Z,101558.44
2024-02-14T17:18:24.081Z,101564.13
2024-02-14T17:20:53.429Z,101568.53
2024-02-14T17:23:21.670Z,101564.25
2024-02-14T17:25:51.505Z,101574.81
2024-02-14T17:28:19.766Z,101579.91
2024-02-14T17:30:49.885Z,101584.34
2024-02-14T17:33:18.565Z,101572.94
2024-02-14T17:35:49.075Z,101577.34
2024-02-14T17:38:17.368Z,101564.97
2024-02-14T17:40:45.989Z,101572.38
2024-02-14T17:43:14.344Z,101573.81
2024-02-14T17:45:42.958Z,101580.16
2024-02-14T17:48:11.443Z,101575.28
2024-02-14T17:50:42.401Z,101578.13
2024-02-14T17:53:10.598Z,101573.31
2024-02-14T17:55:39.110Z,101589.31
2024-02-14T17:58:07.598Z,101586.53
2024-02-14T18:00:36.404Z,101594.44
2024-02-14T18:03:05.051Z,101590.44
2024-02-14T18:05:34.518Z,101589.47
2024-02-14T18:08:02.913Z,101591.38
2024-02-14T18:10:32.396Z,101588.19
2024-02-14T18:13:01.098Z,101592.03
2024-02-14T18:15:29.939Z,101593.28
2024-02-14T18:17:58.527Z,101589.53
2024-02-14T18:20:27.398Z,101593.19
2024-02-14T18:22:55.792Z,101599.91
2024-02-14T18:25:24.469Z,101604.19
2024-02-14T18:27:54.104Z,101599.22
2024-02-14T18:30:23.798Z,101606.59
2024-02-14T18:32:52.425Z,101604.50
2024-02-14T18:35:21.193Z,101605.31
2024-02-14T18:37:49.495Z,101608.78
2024-02-14T18:40:18.398Z,101606.31
2024-02-14T18:42:47.698Z,101607.03
2024-02-14T18:45:16.542Z,101610.78
2024-02-14T18:47:45.748Z,101612.78
2024-02-14T18:50:14.485Z,101617.69
2024-02-14T18:52:42.747Z,101611.31
2024-02-14T18:55:12.474Z,101616.16
2024-02-14T18:57:40.675Z,101620.47
2024-02-14T19:00:11.573Z,101623.44
2024-02-14T19:02:43.279Z,101617.75
2024-02-14T19:05:12.113Z,101610.03
2024-02-14T19:07:40.626Z,101615.78
2024-02-14T19:10:10.248Z,101619.25
2024-02-14T19:12:38.503Z,101613.72
2024-02-14T19:15:07.900Z,101613.09
2024-02-14T19:17:37.076Z,101614.22
2024-02-14T19:20:09.082Z,101605.97
2024-02-14T19:22:37.499Z,101606.47
2024-02-14T19:25:07.316Z,101610.44
2024-02-14T19:27:36.024Z,101613.91
2024-02-14T19:30:08.539Z,101624.59
2024-02-14T19:32:40.646Z,101630.75
2024-02-14T19:35:10.426Z,101634.97
2024-02-14T19:37:38.821Z,101641.69
2024-02-14T19:40:09.377Z,101637.69
2024-02-14T19:42:38.516Z,101640.06
2024-02-14T19:45:08.242Z,101636.13
2024-02-14T19:47:37.350Z,101632.13
2024-02-14T19:50:09.413Z,101629.19
2024-02-14T19:52:38.813Z,101629.63
2024-02-14T19:55:09.274Z,101623.56
2024-02-14T19:57:37.809Z,101627.03
2024-02-14T20:00:10.131Z,101628.13
2024-02-14T20:02:41.557Z,101630.81
2024-02-14T20:05:10.769Z,101626.28
2024-02-14T20:07:39.194Z,101634.16
2024-02-14T20:10:08.744Z,101638.63
2024-02-14T20:12:39.987Z,101637.56
2024-02-14T20:15:09.828Z,101639.38
2024-02-14T20:17:38.444Z,101641.97
2024-02-14T20:20:11.164Z,101643.13
2024-02-14T20:22:39.593Z,101642.69
2024-02-14T20:25:14.045Z,101640.59
2024-02-14T20:27:42.694Z,101631.22
2024-02-14T20:30:14.308Z,101627.59
2024-02-14T20:32:44.214Z,101628.47
2024-02-14T20:35:16.199Z,101643.44
2024-02-14T20:37:46.869Z,101655.53
2024-02-14T20:40:15.980Z,101648.63
2024-02-14T20:42:44.605Z,101653.06
2024-02-14T20:45:14.372Z,101652.91
2024-02-14T20:47:46.115Z,101642.81
2024-02-14T20:50:18.297Z,101644.91
2024-02-14T20:52:46.523Z,101646.78
2024-02-14T20:55:16.175Z,101648.22
2024-02-14T20:57:44.658Z,101652.41
2024-02-14T21:00:14.968Z,101650.16
2024-02-14T21:02:43.477Z,101652.50
2024-02-14T21:05:12.216Z,101651.66
2024-02-14T21:07:40.534Z,101655.22
2024-02-14T21:10:11.390Z,101658.38
2024-02-14T21:12:39.827Z,101658.63
2024-02-14T21:15:09.124Z,101652.97
2024-02-14T21:17:39.076Z,101656.56
2024-02-14T21:20:10.476Z,101663.03
2024-02-14T21:22:42.501Z,101658.53
2024-02-14T21:25:11.908Z,101649.41
2024-02-14T21:27:40.226Z,101651.28
2024-02-14T21:30:09.437Z,101647.81
2024-02-14T21:32:37.846Z,101655.75
2024-02-14T21:35:06.767Z,101658.09
2024-02-14T21:37:35.129Z,101656.56
2024-02-14T21:40:04.897Z,101658.31
2024-02-14T21:42:33.892Z,101661.25
2024-02-14T21:45:03.554Z,101661.53
2024-02-14T21:47:32.161Z,101661.75
2024-02-14T21:50:01.509Z,101664.91
2024-02-14T21:52:31.317Z,101661.94
2024-02-14T21:55:00.670Z,101660.56
2024-02-14T21:57:29.061Z,101667.13
2024-02-14T21:59:57.904Z,101659.94
2024-02-14T22:02:26.259Z,101664.78
2024-02-14T22:04:55.312Z,101664.63
2024-02-14T22:07:26.217Z,101660.13
2024-02-14T22:09:55.344Z,101655.22
2024-02-14T22:12:24.284Z,101652.75
2024-02-14T22:14:53.713Z,101660.09
2024-02-14T22:17:22.156Z,101659.25
2024-02-14T22:19:50.824Z,101659.16
2024-02-14T22:22:21.477Z,101654.63
2024-02-14T22:24:50.373Z,101647.50
2024-02-14T22:27:20.095Z,101648.47
2024-02-14T22:29:48.918Z,101641.31
2024-02-14T22:32:17.306Z,101645.59
2024-02-14T22:34:46.021Z,101637.66
2024-02-14T22:37:15.088Z,101632.31
2024-02-14T22:39:43.917Z,101628.00
2024-02-14T22:42:12.443Z,101619.19
2024-02-14T22:44:41.320Z,101620.03
2024-02-14T22:47:09.950Z,101616.28
2024-02-14T22:49:39.570Z,101621.94
2024-02-14T22:52:08.337Z,101614.78
2024-02-14T22:54:37.098Z,101630.38
2024-02-14T22:57:05.679Z,101629.53
2024-02-14T22:59:34.515Z,101627.44
2024-02-14T23:02:03.434Z,101623.09
2024-02-14T23:04:35.116Z,101625.97
2024-02-14T23:07:04.029Z,101610.63
2024-02-14T23:09:35.051Z,101613.66
2024-02-14T23:12:03.544Z,101621.44
2024-02-14T23:14:32.728Z,101619.97
2024-02-14T23:17:01.420Z,101618.56
2024-02-14T23:19:30.333Z,101612.91
2024-02-14T23:21:58.933Z,101609.47
2024-02-14T23:24:28.911Z,101616.94
2024-02-14T23:26:57.223Z,101616.53
2024-02-14T23:29:25.765Z,101609.25
2024-02-14T23:31:54.347Z,101615.34
2024-02-14T23:34:23.776Z,101611.03
2024-02-14T23:36:52.307Z,101610.81
2024-02-14T23:39:24.299Z,101605.53
2024-02-14T23:41:52.585Z,101606.56
2024-02-14T23:44:21.620Z,101602.19
2024-02-14T23:46:49.859Z,101590.34
2024-02-14T23:49:18.977Z,101590.72
2024-02-14T23:51:47.821Z,101581.75
2024-02-14T23:54:16.943Z,101578.00
2024-02-14T23:56:48.524Z,101589.91
2024-02-14T23:59:17.359Z,101592.94
